Latest Weather Observations for Woomera

IDS60801

Issued at 8:35 pm CDT Thursday 27 November 2014 (issued every 30 minutes, with the page automatically refreshed every 10 minutes)

About weather observations | Map of weather stations | Latest weather observations for SA | Other Formats
Station Details ID: 016001 Name: WOOMERA AERODROME Lat: -31.16 Lon: 136.81 Height: 166.6 m
Data from the previous 72 hours. | See also: Recent months at Woomera
Date/Time
CDT
Temp
°C
App
Temp
°C
Dew
Point
Rel
Hum
%
Delta-T
°C
Wind Press
QNH
hPa
Press
MSL
hPa
Rain
since 9 am
mm
Dir
 
Spd
km/h
Gust
km/h
Spd
kts
Gust
kts
27/08:30pm 28.9 24.4 -3.3 12 14.5 ESE 11 13 6 7 1016.7 - 0.0
27/08:00pm 30.3 26.7 -2.3 12 15.1 SSW 7 13 4 7 1016.7 - 0.0
27/07:30pm 31.0 24.5 -6.3 8 16.2 S 20 22 11 12 1016.7 - 0.0
27/07:00pm 31.1 25.4 -4.1 10 15.9 SSE 17 30 9 16 1016.4 - 0.0
27/06:30pm 31.4 25.0 -4.8 9 16.2 SSE 20 28 11 15 1016.2 - 0.0
27/06:00pm 31.2 24.7 -5.5 9 16.2 SSE 20 28 11 15 1016.2 1015.6 0.0
27/05:30pm 31.8 26.1 -4.1 9 16.3 NE 17 20 9 11 1016.3 - 0.0
27/05:00pm 31.6 27.1 -3.1 10 16.0 SSE 11 15 6 8 1016.4 - 0.0
27/04:30pm 32.0 27.4 -4.0 9 16.4 SE 11 20 6 11 1016.6 - 0.0
27/04:00pm 31.0 25.2 -4.5 10 15.9 ESE 17 32 9 17 1016.9 - 0.0
27/03:30pm 31.6 26.9 -4.8 9 16.3 WSW 11 15 6 8 1017.2 - 0.0
27/03:00pm 30.4 26.6 -1.1 13 14.9 E 9 17 5 9 1017.5 1016.9 0.0
27/02:30pm 30.8 26.5 -1.5 12 15.2 E 11 19 6 10 1017.9 - 0.0
27/02:00pm 31.1 26.3 -2.6 11 15.6 E 13 20 7 11 1018.2 - 0.0
27/01:30pm 30.3 26.0 -1.9 12 15.0 SE 11 22 6 12 1018.6 - 0.0
27/01:00pm 30.2 25.4 -2.7 11 15.1 SSE 13 20 7 11 1018.9 - 0.0
27/12:30pm 29.2 24.6 -1.1 14 14.2 ESE 13 20 7 11 1019.2 - 0.0
27/12:00pm 29.0 24.1 -0.3 15 13.9 ESE 15 24 8 13 1019.6 1019.0 0.0
27/11:30am 28.0 22.4 0.2 16 13.2 E 19 26 10 14 1020.0 - 0.0
27/11:00am 27.6 21.9 0.5 17 12.9 E 20 30 11 16 1020.3 - 0.0
27/10:30am 26.3 20.4 1.5 20 11.9 E 22 30 12 16 1020.3 - 0.0
27/10:00am 25.5 19.3 2.1 22 11.3 E 24 33 13 18 1020.6 - 0.0
27/09:30am 23.4 17.4 3.5 27 9.7 E 24 32 13 17 1020.7 - 0.0
27/09:00am 22.9 16.6 3.6 28 9.4 E 26 32 14 17 1020.7 1020.1 0.0
27/08:30am 21.8 15.8 5.1 33 8.3 ESE 26 30 14 16 1020.5 - 0.0
27/08:00am 20.0 14.5 5.7 39 7.1 ESE 24 30 13 16 1020.3 - 0.0
27/07:30am 19.1 13.8 6.6 44 6.3 ESE 24 30 13 16 1020.1 - 0.0
27/07:00am 18.3 13.1 7.2 48 5.6 ESE 24 30 13 16 1019.7 - 0.0
27/06:30am 17.0 12.5 8.7 58 4.3 SE 22 28 12 15 1019.5 - 0.0
27/06:00am 16.6 12.4 9.8 64 3.6 SE 22 28 12 15 1019.3 1018.7 0.0
27/05:30am 16.8 12.7 10.0 64 3.6 SE 22 28 12 15 1019.1 - 0.0
27/05:00am 17.1 12.9 9.9 62 3.8 SE 22 28 12 15 1018.9 - 0.0
27/04:30am 17.5 12.6 9.8 60 4.1 SE 26 33 14 18 1018.7 - 0.0
27/04:00am 17.7 13.3 8.9 56 4.6 SE 22 28 12 15 1018.7 - 0.0
27/03:30am 18.0 13.4 8.1 52 5.1 SE 22 28 12 15 1018.6 - 0.0
27/03:00am 18.3 12.4 7.3 48 5.6 SSE 28 33 15 18 1018.5 1017.9 0.0
27/02:30am 18.6 12.6 6.9 46 5.9 SE 28 37 15 20 1018.6 - 0.0
27/02:00am 18.8 12.5 7.4 47 5.8 SE 30 39 16 21 1018.7 - 0.0
27/01:30am 19.1 13.2 7.3 46 6.0 SE 28 41 15 22 1018.9 - 0.0
27/01:00am 19.7 12.4 5.6 39 7.0 SSE 33 43 18 23 1019.1 - 0.0
27/12:30am 20.3 13.3 4.2 34 7.8 SE 30 43 16 23 1019.3 - 0.0
27/12:00am 21.1 12.9 2.7 29 8.7 SE 35 44 19 24 1019.4 1018.8 0.0
 
Date/Time
CDT
Temp
°C
App
Temp
°C
Dew
Point
Rel
Hum
%
Delta-T
°C
Wind Press
QNH
hPa
Press
MSL
hPa
Rain
since 9 am
mm
Dir
 
Spd
km/h
Gust
km/h
Spd
kts
Gust
kts
26/11:30pm 22.2 13.9 -0.6 22 10.2 SE 33 44 18 24 1019.2 - 0.0
26/11:00pm 23.0 14.7 -0.5 21 10.6 SSE 33 43 18 23 1019.1 - 0.0
26/10:30pm 24.2 15.7 -1.5 18 11.5 SSE 33 44 18 24 1018.9 - 0.0
26/10:00pm 25.2 17.7 -1.3 17 12.0 SSE 28 35 15 19 1018.6 - 0.0
26/09:30pm 26.0 18.4 -2.0 15 12.6 SSE 28 35 15 19 1018.1 - 0.0
26/09:00pm 26.9 19.3 -2.0 15 13.1 SE 28 35 15 19 1017.8 1017.2 0.0
26/08:30pm 27.6 20.8 -1.6 14 13.4 SE 24 35 13 19 1017.5 - 0.0
26/08:00pm 28.3 22.3 -3.1 12 14.1 SSE 19 22 10 12 1017.3 - 0.0
26/07:30pm 29.0 23.0 -6.4 9 15.1 S 17 24 9 13 1017.0 - 0.0
26/07:00pm 29.1 21.8 -6.1 9 15.1 ESE 24 32 13 17 1016.8 - 0.0
26/06:30pm 29.9 23.5 -5.2 10 15.4 S 20 32 11 17 1016.8 - 0.0
26/06:00pm 29.8 24.4 -4.4 10 15.2 ESE 15 26 8 14 1016.8 1016.2 0.0
26/05:30pm 29.7 23.3 -5.3 10 15.3 SSW 20 28 11 15 1016.9 - 0.0
26/05:00pm 29.7 22.9 -4.7 10 15.2 SSW 22 32 12 17 1016.9 - 0.0
26/04:30pm 29.9 23.5 -4.6 10 15.3 S 20 33 11 18 1017.1 - 0.0
26/04:00pm 30.1 23.7 -5.1 10 15.5 S 20 33 11 18 1017.3 - 0.0
26/03:30pm 29.5 23.7 -4.2 11 15.0 S 17 26 9 14 1017.7 - 0.0
26/03:00pm 29.2 24.7 -3.6 11 14.7 SSE 11 17 6 9 1018.1 1017.5 0.0
26/02:30pm 29.7 24.7 -4.2 11 15.1 S 13 24 7 13 1018.5 - 0.0
26/02:00pm 29.4 25.2 -3.5 11 14.8 SW 9 15 5 8 1019.0 - 0.0
26/01:30pm 28.7 22.5 -4.6 11 14.6 SSW 19 22 10 12 1019.2 - 0.0
26/01:00pm 27.3 23.0 -1.5 15 13.2 SE 11 17 6 9 1019.7 - 0.0
26/12:30pm 26.9 22.3 -0.7 16 12.8 SSW 13 19 7 10 1020.2 - 0.0
26/12:00pm 26.7 23.3 -0.8 16 12.7 ESE 7 17 4 9 1020.6 1020.0 0.0
26/11:30am 26.0 22.1 0.9 19 11.9 SSE 11 26 6 14 1020.8 - 0.0
26/11:00am 24.4 19.6 2.7 24 10.5 ESE 17 24 9 13 1020.9 - 0.0
26/10:30am 22.8 18.0 2.8 27 9.6 ESE 17 24 9 13 1021.1 - 0.0
26/10:00am 22.1 17.0 3.1 28 9.1 ESE 19 26 10 14 1021.3 - 0.0
26/09:30am 21.4 15.3 2.9 29 8.8 SE 24 30 13 16 1021.1 - 0.0
26/09:00am 20.1 13.4 3.8 34 7.8 SE 28 35 15 19 1021.0 1020.4 0.0
26/08:30am 18.8 12.3 4.7 39 6.8 SE 28 32 15 17 1020.7 - 0.0
26/08:00am 17.6 11.1 4.9 43 6.1 SE 28 33 15 18 1020.5 - 0.0
26/07:30am 16.3 10.2 5.0 47 5.4 SE 26 32 14 17 1020.2 - 0.0
26/07:00am 15.2 9.5 5.1 51 4.8 SSE 24 30 13 16 1020.1 - 0.0
26/06:30am 14.4 9.8 5.6 55 4.2 SSE 19 22 10 12 1020.0 - 0.0
26/06:00am 14.4 10.2 5.8 56 4.1 SSE 17 22 9 12 1019.6 1019.0 0.0
26/05:30am 14.6 10.0 6.4 58 4.0 SSE 20 26 11 14 1019.3 - 0.0
26/05:00am 14.8 9.9 6.9 59 3.9 SSE 22 30 12 16 1018.8 - 0.0
26/04:30am 15.2 10.4 7.4 59 3.9 SSE 22 32 12 17 1018.7 - 0.0
26/04:00am 15.3 11.0 8.0 61 3.7 SSE 20 30 11 16 1018.9 - 0.0
26/03:30am 15.5 11.3 8.2 62 3.7 S 20 28 11 15 1018.9 - 0.0
26/03:00am 15.9 12.3 8.2 60 3.9 SSE 17 24 9 13 1019.1 1018.5 0.0
26/02:30am 16.1 12.7 7.5 56 4.3 SSE 15 19 8 10 1019.3 - 0.0
26/02:00am 16.8 11.9 7.0 52 4.9 SSE 22 28 12 15 1019.4 - 0.0
26/01:30am 17.3 12.3 4.8 43 6.0 SSE 20 26 11 14 1019.7 - 0.0
26/01:00am 18.0 12.2 4.4 40 6.5 SSE 24 32 13 17 1019.8 - 0.0
26/12:30am 18.3 12.4 3.7 38 6.9 SSE 24 35 13 19 1020.1 - 0.0
26/12:00am 19.3 12.2 3.5 35 7.5 SE 30 41 16 22 1020.0 1019.4 0.0
 
Date/Time
CDT
Temp
°C
App
Temp
°C
Dew
Point
Rel
Hum
%
Delta-T
°C
Wind Press
QNH
hPa
Press
MSL
hPa
Rain
since 9 am
mm
Dir
 
Spd
km/h
Gust
km/h
Spd
kts
Gust
kts
25/11:30pm 20.2 14.1 2.8 31 8.2 SE 24 33 13 18 1019.7 - 0.0
25/11:00pm 21.2 14.6 -0.7 23 9.7 SE 24 30 13 16 1019.5 - 0.0
25/10:30pm 22.0 15.2 -1.9 20 10.4 SSE 24 32 13 17 1019.5 - 0.0
25/10:00pm 22.4 16.4 -1.4 20 10.5 SSE 20 26 11 14 1019.5 - 0.0
25/09:30pm 23.0 16.9 -2.2 18 11.0 SSE 20 28 11 15 1019.5 - 0.0
25/09:00pm 23.5 17.9 -2.8 17 11.4 SSE 17 22 9 12 1019.2 1018.6 0.0
25/08:30pm 24.3 18.1 -3.1 16 11.9 SSE 20 30 11 16 1018.9 - 0.0
25/08:00pm 25.0 18.8 -3.2 15 12.3 SSE 20 26 11 14 1018.7 - 0.0
25/07:30pm 25.7 19.0 -3.8 14 12.8 SSE 22 28 12 15 1018.6 - 0.0
25/07:00pm 26.4 20.7 -3.9 13 13.2 S 17 26 9 14 1018.4 - 0.0
25/06:30pm 26.4 20.2 -4.9 12 13.4 SSE 19 32 10 17 1018.1 - 0.0
25/06:00pm 26.7 21.0 -4.0 13 13.4 SSE 17 32 9 17 1018.1 1017.5 0.0
25/05:30pm 26.9 21.2 -7.5 10 14.1 SSE 15 24 8 13 1018.2 - 0.0
25/05:00pm 26.1 20.0 -7.7 10 13.7 S 17 24 9 13 1018.4 - 0.0
25/04:30pm 26.8 19.9 -10.0 8 14.4 SSE 20 28 11 15 1018.7 - 0.0
25/04:00pm 26.5 20.0 -8.3 9 14.0 SSE 19 26 10 14 1018.9 - 0.0
25/03:30pm 26.4 20.8 -6.1 11 13.6 S 15 22 8 12 1019.2 - 0.0
25/03:00pm 25.5 19.4 -7.2 11 13.3 SE 17 26 9 14 1019.5 1018.9 0.0
25/02:30pm 24.9 18.4 -6.2 12 12.8 SE 20 30 11 16 1019.9 - 0.0
25/02:00pm 25.1 18.9 -4.5 14 12.6 SE 19 22 10 12 1020.1 - 0.0
25/01:30pm 23.6 18.3 -3.5 16 11.6 S 15 19 8 10 1020.5 - 0.0
25/01:00pm 23.7 17.7 -3.2 16 11.6 S 19 30 10 16 1020.9 - 0.0
25/12:30pm 22.8 16.5 -3.6 17 11.2 S 20 32 11 17 1021.3 - 0.0
25/12:00pm 21.9 15.1 -1.7 20 10.3 SSE 24 35 13 19 1021.6 1021.0 0.0
25/11:30am 21.2 14.3 -2.4 20 10.1 SE 24 35 13 19 1021.8 - 0.0
25/11:00am 20.5 13.0 -1.4 23 9.5 SSE 28 37 15 20 1021.7 - 0.0
25/10:30am 19.2 11.5 0.2 28 8.4 SSE 30 43 16 23 1021.7 - 0.0
25/10:00am 18.9 11.0 0.8 29 8.1 SE 32 39 17 21 1021.7 - 0.0
25/09:30am 18.1 9.8 0.0 29 7.9 SE 33 44 18 24 1021.8 - 0.0
25/09:00am 16.8 8.7 3.1 40 6.3 SSE 35 44 19 24 1021.7 1021.1 0.0
25/08:30am 16.2 8.2 3.7 43 5.8 SSE 35 46 19 25 1021.4 - 0.0
25/08:00am 15.3 8.5 4.9 50 4.9 SSE 30 41 16 22 1021.7 - 0.0
25/07:30am 14.4 8.9 5.8 56 4.1 SSE 24 35 13 19 1021.5 - 0.0
25/07:00am 13.5 8.3 5.4 58 3.8 SSE 22 33 12 18 1021.2 - 0.0
25/06:30am 12.8 8.6 5.8 62 3.3 ESE 17 26 9 14 1021.1 - 0.0
25/06:00am 12.7 8.1 5.7 62 3.3 S 19 24 10 13 1020.8 1020.2 0.0
25/05:30am 13.0 8.4 5.6 61 3.5 S 19 24 10 13 1020.6 - 0.0
25/05:00am 13.3 9.1 5.7 60 3.6 S 17 24 9 13 1020.5 - 0.0
25/04:30am 13.5 8.8 6.0 60 3.6 S 20 28 11 15 1020.3 - 0.0
25/04:00am 13.8 7.9 5.8 58 3.8 SSE 26 35 14 19 1020.1 - 0.0
25/03:30am 14.0 8.1 5.8 57 3.9 SSE 26 37 14 20 1020.0 - 0.0
25/03:00am 14.4 7.9 6.3 58 3.9 SSE 30 43 16 23 1019.9 1019.3 0.0
25/02:30am 14.7 9.4 7.0 60 3.8 SSE 24 32 13 17 1020.1 - 0.0
25/02:00am 15.0 10.1 6.9 58 4.0 SSE 22 35 12 19 1020.0 - 0.0
25/01:30am 15.3 9.2 6.8 57 4.2 SSE 28 41 15 22 1020.1 - 0.0
25/01:06am 15.8 8.8 6.2 53 4.7 SSE 32 50 17 27 1020.0 - 0.0
25/01:00am 15.8 8.3 6.2 53 4.7 SSE 35 50 19 27 1019.9 - 0.0
25/12:30am 16.0 8.4 5.9 51 4.9 SSE 35 48 19 26 1019.9 - 0.0
25/12:00am 16.5 9.0 6.1 50 5.1 SSE 35 48 19 26 1019.6 1019.0 0.0
 
Date/Time
CDT
Temp
°C
App
Temp
°C
Dew
Point
Rel
Hum
%
Delta-T
°C
Wind Press
QNH
hPa
Press
MSL
hPa
Rain
since 9 am
mm
Dir
 
Spd
km/h
Gust
km/h
Spd
kts
Gust
kts
24/11:30pm 17.0 10.0 6.2 49 5.3 SE 32 43 17 23 1019.3 - 0.0
24/11:00pm 17.7 10.6 6.2 47 5.7 SE 33 44 18 24 1019.0 - 0.0
24/10:30pm 18.3 11.2 5.7 43 6.2 SSE 32 41 17 22 1018.3 - 0.0
24/10:00pm 19.2 12.3 7.2 45 6.1 SSE 33 43 18 23 1017.5 - 0.0
24/09:30pm 20.5 13.7 7.8 44 6.6 SSE 33 43 18 23 1016.9 - 0.0
24/09:00pm 21.9 15.1 7.5 39 7.5 SSE 33 43 18 23 1016.2 1015.6 0.0

Other Formats:

Comma delimited format used in spreadsheet applications
http://www.bom.gov.au/fwo/IDS60801/IDS60801.94659.axf

JavaScript Object Notation format (JSON) in row-major order
http://www.bom.gov.au/fwo/IDS60801/IDS60801.94659.json